Time;durP1;ratioP1;P1;durP2;ratioP2;P2;SDS_P1;SDS_P2;PMS_P1;PMS_P2;Temp;Humidity;BMP_temperature;BMP_pressure;BME280_temperature;BME280_humidity;BME280_pressure;Samples;Min_cycle;Max_cycle;Signal;HPM_P1;HPM_P2
2022/10/15 00:02:19;;;;;;;1.25;0.35;;;17.80;90.00;;;;;;4983534;28;20096;-89
2022/10/15 00:04:47;;;;;;;0.80;0.30;;;17.80;89.90;;;;;;4998124;28;20563;-89
2022/10/15 00:07:12;;;;;;;1.23;0.32;;;17.90;89.90;;;;;;4997069;28;20022;-88
2022/10/15 00:09:38;;;;;;;0.50;0.20;;;17.90;89.90;;;;;;4994604;28;20402;-89
2022/10/15 00:12:04;;;;;;;0.68;0.40;;;17.90;89.90;;;;;;4992900;28;20037;-89
2022/10/15 00:14:30;;;;;;;1.65;0.38;;;17.90;89.90;;;;;;4978997;28;20429;-90
2022/10/15 00:16:55;;;;;;;2.72;0.45;;;17.90;90.00;;;;;;4993319;28;20031;-88
2022/10/15 00:19:21;;;;;;;1.42;0.40;;;17.90;90.00;;;;;;4982838;28;20113;-90
2022/10/15 00:21:46;;;;;;;1.85;0.40;;;17.90;89.80;;;;;;4998628;28;20516;-88
2022/10/15 00:24:12;;;;;;;0.70;0.40;;;17.90;89.90;;;;;;5032905;28;20033;-88
2022/10/15 00:26:38;;;;;;;1.65;0.40;;;17.90;90.10;;;;;;5016152;28;20026;-89
2022/10/15 00:29:03;;;;;;;0.50;0.30;;;17.90;90.00;;;;;;5007508;28;20485;-89
2022/10/15 00:31:31;;;;;;;1.25;0.40;;;17.90;90.00;;;;;;4977995;28;20027;-90
2022/10/15 00:33:58;;;;;;;2.05;0.40;;;17.90;90.10;;;;;;4993007;28;20035;-89
2022/10/15 00:36:31;;;;;;;1.48;0.30;;;17.90;90.00;;;;;;4976932;28;20023;-89
2022/10/15 00:38:57;;;;;;;0.45;0.30;;;18.00;90.00;;;;;;4976782;28;20033;-88
2022/10/15 00:41:36;;;;;;;0.88;0.50;;;18.00;89.90;;;;;;4976911;28;20114;-89
2022/10/15 00:44:20;;;;;;;2.08;0.47;;;18.00;89.90;;;;;;4978148;28;20109;-89
2022/10/15 00:46:54;;;;;;;3.42;0.60;;;18.00;89.90;;;;;;4984651;28;20035;-90
2022/10/15 00:49:52;;;;;;;1.38;0.40;;;18.00;89.90;;;;;;4996130;28;20038;-87
2022/10/15 00:52:44;;;;;;;1.02;0.50;;;18.00;90.00;;;;;;4981383;28;20045;-90
2022/10/15 00:55:13;;;;;;;1.13;0.50;;;18.00;90.00;;;;;;4992309;28;20047;-88
2022/10/15 00:57:39;;;;;;;1.00;0.40;;;18.00;90.00;;;;;;4996782;28;20033;-89
2022/10/15 01:00:09;;;;;;;2.03;0.50;;;18.00;90.00;;;;;;4999564;28;20081;-89
2022/10/15 01:02:35;;;;;;;1.13;0.40;;;18.00;90.10;;;;;;4980033;28;20118;-89
2022/10/15 01:05:00;;;;;;;3.42;0.50;;;18.00;90.00;;;;;;4976661;28;20308;-87
2022/10/15 01:07:26;;;;;;;0.75;0.30;;;18.00;90.00;;;;;;4977255;28;20029;-89
2022/10/15 01:09:55;;;;;;;2.20;0.30;;;18.00;89.90;;;;;;4992449;28;20045;-89
2022/10/15 01:12:26;;;;;;;1.23;0.40;;;18.00;90.00;;;;;;4992684;28;20444;-88
2022/10/15 01:15:12;;;;;;;1.77;0.40;;;18.00;90.00;;;;;;4991167;28;20062;-88
2022/10/15 01:17:45;;;;;;;0.90;0.47;;;18.00;90.00;;;;;;4996863;28;20030;-89
2022/10/15 01:20:10;;;;;;;4.15;0.43;;;18.00;90.10;;;;;;4995521;28;20053;-90
2022/10/15 01:22:55;;;;;;;1.45;0.40;;;18.00;90.10;;;;;;5018981;28;20026;-90
2022/10/15 01:25:45;;;;;;;1.55;0.40;;;18.00;90.10;;;;;;5013634;28;20026;-88
2022/10/15 01:28:32;;;;;;;0.80;0.40;;;18.00;90.00;;;;;;5011562;28;20029;-88
2022/10/15 01:31:10;;;;;;;1.92;0.40;;;18.00;89.80;;;;;;4977146;28;20109;-89
2022/10/15 01:33:51;;;;;;;0.50;0.30;;;18.00;89.80;;;;;;4977034;28;20034;-88
2022/10/15 01:36:31;;;;;;;2.53;0.73;;;18.00;89.80;;;;;;4989868;28;20023;-89
2022/10/15 01:39:40;;;;;;;1.13;0.40;;;18.00;89.90;;;;;;5005712;28;20060;-88
2022/10/15 01:42:24;;;;;;;0.80;0.40;;;18.00;89.70;;;;;;4966797;28;20031;-88
2022/10/15 01:44:56;;;;;;;2.25;0.40;;;18.00;89.70;;;;;;4991567;28;20409;-90
2022/10/15 01:47:23;;;;;;;1.00;0.40;;;18.00;89.70;;;;;;4975767;28;20031;-90
2022/10/15 01:49:54;;;;;;;1.33;0.50;;;18.00;89.60;;;;;;4984489;28;20508;-89
2022/10/15 01:52:28;;;;;;;5.25;0.45;;;18.00;89.70;;;;;;4994205;28;20026;-89
2022/10/15 01:55:17;;;;;;;1.85;0.35;;;18.00;89.60;;;;;;5011533;28;20081;-88
2022/10/15 01:57:44;;;;;;;4.78;0.75;;;17.90;89.50;;;;;;4991226;28;20031;-88
2022/10/15 02:00:10;;;;;;;3.10;0.50;;;18.00;89.50;;;;;;4976302;28;20034;-89
2022/10/15 02:02:36;;;;;;;1.83;0.45;;;18.00;89.30;;;;;;4975220;28;20034;-88
2022/10/15 02:05:09;;;;;;;1.35;0.52;;;18.00;89.30;;;;;;4992207;28;20026;-89
2022/10/15 02:07:42;;;;;;;1.63;0.50;;;18.00;89.20;;;;;;4976648;28;20037;-89
2022/10/15 02:10:35;;;;;;;5.57;0.80;;;18.00;89.10;;;;;;4976708;28;20060;-87
2022/10/15 02:13:21;;;;;;;4.00;0.75;;;18.00;88.90;;;;;;4976992;28;20620;-89
2022/10/15 02:16:08;;;;;;;6.43;0.68;;;18.00;89.10;;;;;;4975223;28;20034;-90
2022/10/15 02:18:55;;;;;;;1.85;0.43;;;18.00;89.00;;;;;;4976101;28;20034;-88
2022/10/15 02:21:31;;;;;;;8.38;0.82;;;18.00;89.00;;;;;;4975756;28;20034;-90
2022/10/15 02:24:16;;;;;;;4.15;0.57;;;18.00;88.80;;;;;;5011368;28;20374;-88
2022/10/15 02:26:42;;;;;;;5.68;0.80;;;17.90;88.70;;;;;;5015848;28;20034;-88
2022/10/15 02:29:20;;;;;;;2.70;0.68;;;17.90;88.70;;;;;;4998292;28;20030;-89
2022/10/15 02:31:48;;;;;;;7.65;0.80;;;17.80;88.50;;;;;;4995738;28;20044;-88
2022/10/15 02:34:19;;;;;;;2.08;0.70;;;17.90;88.60;;;;;;4989742;28;20023;-90
2022/10/15 02:36:46;;;;;;;8.85;1.30;;;17.80;88.40;;;;;;4974982;28;20023;-89
2022/10/15 02:39:17;;;;;;;9.68;1.35;;;17.80;88.30;;;;;;4975339;28;20359;-89
2022/10/15 02:41:43;;;;;;;3.92;0.68;;;17.80;88.50;;;;;;4975168;28;20118;-90
2022/10/15 02:44:09;;;;;;;9.15;1.02;;;17.80;88.50;;;;;;4991202;28;20035;-89
2022/10/15 02:46:37;;;;;;;13.00;1.73;;;17.80;88.10;;;;;;4995668;28;20030;-88
2022/10/15 02:49:03;;;;;;;2.97;0.90;;;17.80;88.20;;;;;;4995658;28;20037;-88
2022/10/15 02:51:33;;;;;;;4.45;0.90;;;17.80;88.30;;;;;;4995619;28;20038;-89
2022/10/15 02:54:00;;;;;;;5.45;0.93;;;17.80;87.90;;;;;;4977583;28;20125;-88
2022/10/15 02:56:25;;;;;;;4.47;0.80;;;17.80;88.10;;;;;;4991342;28;20085;-89
2022/10/15 02:58:51;;;;;;;3.30;0.70;;;17.80;88.20;;;;;;4991738;28;20105;-88
2022/10/15 03:01:17;;;;;;;7.55;1.40;;;17.80;88.20;;;;;;4994364;28;20033;-88
2022/10/15 03:03:42;;;;;;;7.53;0.75;;;17.90;88.20;;;;;;4998649;28;20464;-88
2022/10/15 03:06:08;;;;;;;7.18;0.90;;;17.80;87.90;;;;;;4998790;28;20401;-87
2022/10/15 03:08:34;;;;;;;5.68;0.88;;;17.80;87.80;;;;;;4999234;28;20026;-88
2022/10/15 03:11:01;;;;;;;3.50;0.85;;;17.80;88.00;;;;;;4999297;28;20100;-88
2022/10/15 03:13:27;;;;;;;4.72;0.80;;;17.80;87.90;;;;;;4983328;28;20093;-88
2022/10/15 03:15:53;;;;;;;4.07;0.82;;;17.80;87.90;;;;;;4978017;28;20034;-89
2022/10/15 03:18:18;;;;;;;4.53;0.82;;;17.80;87.80;;;;;;4978302;28;20031;-89
2022/10/15 03:20:55;;;;;;;4.70;0.82;;;17.80;87.90;;;;;;4994679;28;20030;-88
2022/10/15 03:23:20;;;;;;;3.40;0.85;;;17.80;87.20;;;;;;5012151;28;20038;-88
2022/10/15 03:25:46;;;;;;;6.07;1.02;;;17.70;87.50;;;;;;5018533;28;20030;-88
2022/10/15 03:28:12;;;;;;;7.80;1.10;;;17.80;87.10;;;;;;5010061;28;20030;-89
2022/10/15 03:30:38;;;;;;;5.43;0.60;;;17.70;87.40;;;;;;4997243;28;20041;-89
2022/10/15 03:33:03;;;;;;;8.30;1.00;;;17.70;87.20;;;;;;4998780;28;20027;-88
2022/10/15 03:35:29;;;;;;;5.93;2.72;;;17.70;86.80;;;;;;4998843;28;20027;-89
2022/10/15 03:37:54;;;;;;;6.95;1.40;;;17.70;87.20;;;;;;4998261;28;20026;-89
2022/10/15 03:40:20;;;;;;;3.40;0.70;;;17.60;86.60;;;;;;4997571;28;20023;-89
2022/10/15 03:42:50;;;;;;;4.95;0.95;;;17.60;87.20;;;;;;4998644;28;20022;-89
2022/10/15 03:45:16;;;;;;;;;;;17.60;87.20;;;;;;4996622;28;20382;-87
2022/10/15 03:47:42;;;;;;;6.20;0.98;;;17.60;87.20;;;;;;4977748;28;19945;-89
2022/10/15 03:50:08;;;;;;;5.80;1.35;;;17.60;87.20;;;;;;4978390;28;20031;-88
2022/10/15 03:52:34;;;;;;;4.80;0.95;;;17.50;87.10;;;;;;4977821;28;20118;-88
2022/10/15 03:55:00;;;;;;;4.05;0.77;;;17.60;87.40;;;;;;4998026;28;20120;-88
2022/10/15 03:57:26;;;;;;;3.35;0.68;;;17.60;87.30;;;;;;4998436;28;20034;-88
2022/10/15 03:59:51;;;;;;;6.60;0.90;;;17.60;87.10;;;;;;4990896;28;20026;-88
2022/10/15 04:02:17;;;;;;;6.32;0.77;;;17.50;86.90;;;;;;4978695;28;20026;-88
2022/10/15 04:04:43;;;;;;;2.85;0.77;;;17.50;87.20;;;;;;4977525;28;20066;-88
2022/10/15 04:07:08;;;;;;;4.47;1.15;;;17.50;87.40;;;;;;4977087;28;20039;-90
2022/10/15 04:09:34;;;;;;;3.38;0.88;;;17.60;87.40;;;;;;4987477;28;20030;-89
2022/10/15 04:12:00;;;;;;;7.68;0.70;;;17.50;87.40;;;;;;4998100;28;20101;-89
2022/10/15 04:14:25;;;;;;;2.80;0.98;;;17.50;87.40;;;;;;4996170;28;20084;-88
2022/10/15 04:16:51;;;;;;;3.83;0.70;;;17.40;87.50;;;;;;4997528;28;20023;-89
2022/10/15 04:19:17;;;;;;;2.63;0.88;;;17.40;87.50;;;;;;4997901;28;20030;-88
2022/10/15 04:21:42;;;;;;;5.15;0.70;;;17.50;87.50;;;;;;5012993;28;20033;-89
2022/10/15 04:24:08;;;;;;;2.90;0.60;;;17.50;87.50;;;;;;4997098;28;20041;-88
2022/10/15 04:26:34;;;;;;;0.60;0.40;;;17.50;87.50;;;;;;4993468;28;20034;-88
2022/10/15 04:28:59;;;;;;;2.78;0.82;;;17.50;87.30;;;;;;4977131;28;20081;-88
2022/10/15 04:31:25;;;;;;;7.53;0.77;;;17.50;87.60;;;;;;4976693;28;20065;-89
2022/10/15 04:33:51;;;;;;;1.85;0.80;;;17.50;87.40;;;;;;4993124;28;20031;-88
2022/10/15 04:36:16;;;;;;;4.60;0.85;;;17.30;87.30;;;;;;4978438;28;20393;-88
2022/10/15 04:38:42;;;;;;;4.20;0.70;;;17.40;87.50;;;;;;4977036;28;20445;-89
2022/10/15 04:41:10;;;;;;;1.35;0.70;;;17.40;87.40;;;;;;4977922;28;20043;-90
2022/10/15 04:43:36;;;;;;;2.80;0.50;;;17.40;87.30;;;;;;4992704;28;20039;-89
2022/10/15 04:46:04;;;;;;;4.88;0.75;;;17.30;86.90;;;;;;4993474;28;20038;-88
2022/10/15 04:48:31;;;;;;;2.08;0.85;;;17.30;87.10;;;;;;4977911;28;20035;-89
2022/10/15 04:51:10;;;;;;;3.63;0.70;;;17.30;87.50;;;;;;4977809;28;20454;-88
2022/10/15 04:53:36;;;;;;;2.42;0.60;;;17.30;87.50;;;;;;4992780;28;20042;-88
2022/10/15 04:56:04;;;;;;;3.25;0.63;;;17.40;87.20;;;;;;4977934;28;20031;-88
2022/10/15 04:58:34;;;;;;;1.58;0.70;;;17.30;87.40;;;;;;4977113;28;20034;-89
2022/10/15 05:01:06;;;;;;;1.80;0.80;;;17.40;87.30;;;;;;4976121;28;20097;-88
2022/10/15 05:03:32;;;;;;;1.10;0.47;;;17.40;87.30;;;;;;4991435;28;20035;-87
2022/10/15 05:06:02;;;;;;;1.83;0.70;;;17.40;87.50;;;;;;4997786;28;20069;-88
2022/10/15 05:08:29;;;;;;;;;;;17.30;87.10;;;;;;4990960;28;20087;-89
2022/10/15 05:10:58;;;;;;;3.35;0.70;;;17.30;87.30;;;;;;4997510;28;19961;-88
2022/10/15 05:13:24;;;;;;;2.37;0.57;;;17.30;87.30;;;;;;4996132;28;20046;-89
2022/10/15 05:15:49;;;;;;;1.98;0.80;;;17.30;87.20;;;;;;4995575;28;20506;-88
2022/10/15 05:18:15;;;;;;;2.97;0.63;;;17.40;87.30;;;;;;4992904;28;20181;-90
2022/10/15 05:20:41;;;;;;;1.38;0.60;;;17.40;87.20;;;;;;4991192;28;20093;-89
2022/10/15 05:23:07;;;;;;;1.45;0.60;;;17.30;87.00;;;;;;5007543;28;20115;-88
2022/10/15 05:25:47;;;;;;;1.98;0.70;;;17.30;87.10;;;;;;5006338;28;20030;-89
2022/10/15 05:28:12;;;;;;;;;;;17.30;87.30;;;;;;5012865;28;20097;-88
2022/10/15 05:30:38;;;;;;;1.13;0.60;;;17.30;86.90;;;;;;4992468;28;20333;-86
2022/10/15 05:33:04;;;;;;;1.27;0.50;;;17.40;87.10;;;;;;4991736;28;20488;-86
2022/10/15 05:35:29;;;;;;;3.08;0.60;;;17.30;87.00;;;;;;4996920;28;20481;-86
2022/10/15 05:37:55;;;;;;;1.90;0.68;;;17.30;86.90;;;;;;4997174;28;20408;-87
2022/10/15 05:40:20;;;;;;;1.45;0.40;;;17.30;86.80;;;;;;4996758;28;20027;-84
2022/10/15 05:42:55;;;;;;;1.77;0.40;;;17.30;86.90;;;;;;5012193;28;20022;-86
2022/10/15 05:45:21;;;;;;;1.05;0.57;;;17.20;86.30;;;;;;4996479;28;20081;-79
2022/10/15 05:47:47;;;;;;;0.80;0.40;;;17.20;86.90;;;;;;4995942;28;20026;-84
2022/10/15 05:50:13;;;;;;;1.67;0.55;;;17.30;87.00;;;;;;4999114;28;20034;-85
2022/10/15 05:52:39;;;;;;;0.90;0.52;;;17.30;86.60;;;;;;4977178;28;20040;-83
2022/10/15 05:55:05;;;;;;;1.98;0.45;;;17.20;86.60;;;;;;4992396;28;20107;-83
2022/10/15 05:57:31;;;;;;;1.25;0.60;;;17.20;86.60;;;;;;4977265;28;20023;-87
2022/10/15 05:59:59;;;;;;;1.30;0.60;;;17.10;86.40;;;;;;4991730;28;20031;-84
2022/10/15 06:02:24;;;;;;;0.85;0.40;;;17.20;86.50;;;;;;4976992;28;20022;-82
2022/10/15 06:04:52;;;;;;;0.73;0.40;;;17.20;86.40;;;;;;4975640;28;20089;-79
2022/10/15 06:07:17;;;;;;;1.73;0.40;;;17.10;86.30;;;;;;4977533;28;20026;-77
2022/10/15 06:09:43;;;;;;;1.45;0.60;;;17.10;86.30;;;;;;4981082;28;20035;-80
2022/10/15 06:12:09;;;;;;;1.42;0.50;;;17.10;86.30;;;;;;4985853;28;20038;-81
2022/10/15 06:14:34;;;;;;;1.00;0.50;;;17.00;86.30;;;;;;4992956;28;20042;-80
2022/10/15 06:17:10;;;;;;;0.90;0.40;;;17.00;86.30;;;;;;4999271;28;20478;-79
2022/10/15 06:19:36;;;;;;;0.93;0.52;;;16.90;86.20;;;;;;4987119;28;20033;-80
2022/10/15 06:22:01;;;;;;;0.73;0.40;;;16.90;85.90;;;;;;4997914;28;20489;-80
2022/10/15 06:24:27;;;;;;;1.70;0.63;;;16.90;85.80;;;;;;5013479;28;20056;-80
2022/10/15 06:26:53;;;;;;;0.93;0.50;;;16.90;85.80;;;;;;4991399;28;20037;-79
2022/10/15 06:29:18;;;;;;;0.93;0.60;;;16.90;85.70;;;;;;4995110;28;20445;-79
2022/10/15 06:31:44;;;;;;;2.30;1.08;;;16.80;85.70;;;;;;4994806;28;20019;-79
2022/10/15 06:34:10;;;;;;;1.17;0.57;;;16.80;86.10;;;;;;4995844;28;20041;-80
2022/10/15 06:36:36;;;;;;;4.53;0.80;;;16.80;85.60;;;;;;4985143;28;20027;-81
2022/10/15 06:39:02;;;;;;;2.63;0.68;;;16.80;85.80;;;;;;4998759;28;20520;-78
2022/10/15 06:41:28;;;;;;;1.70;0.82;;;16.80;85.60;;;;;;4993522;28;20026;-78
2022/10/15 06:43:53;;;;;;;1.17;0.70;;;16.80;85.50;;;;;;4974879;28;20035;-77
2022/10/15 06:46:19;;;;;;;1.65;0.77;;;16.80;85.70;;;;;;4989868;28;20053;-78
2022/10/15 06:48:45;;;;;;;1.00;0.60;;;16.80;85.50;;;;;;4996494;28;20049;-79
2022/10/15 06:51:10;;;;;;;1.13;0.60;;;16.80;85.70;;;;;;4998501;28;20440;-78
2022/10/15 06:53:39;;;;;;;2.00;0.55;;;16.80;85.50;;;;;;4996220;28;20034;-78
2022/10/15 06:56:05;;;;;;;1.15;0.60;;;16.80;85.50;;;;;;4996821;28;20030;-77
2022/10/15 06:58:30;;;;;;;2.33;0.75;;;16.80;85.40;;;;;;4997020;28;20032;-78
2022/10/15 07:01:04;;;;;;;0.98;0.68;;;16.80;84.90;;;;;;4997505;28;20022;-78
2022/10/15 07:03:30;;;;;;;0.85;0.55;;;16.80;85.20;;;;;;5009374;28;20027;-78
2022/10/15 07:05:55;;;;;;;0.82;0.40;;;16.80;85.00;;;;;;4995497;28;20042;-78
2022/10/15 07:08:21;;;;;;;1.00;0.50;;;16.80;85.00;;;;;;5001898;28;20026;-78
2022/10/15 07:10:47;;;;;;;0.60;0.43;;;16.80;85.00;;;;;;5001118;28;20030;-78
2022/10/15 07:13:13;;;;;;;0.90;0.50;;;16.60;84.20;;;;;;5008783;28;20095;-79
2022/10/15 07:15:39;;;;;;;1.17;0.52;;;16.60;84.70;;;;;;5017084;28;20034;-79
2022/10/15 07:18:04;;;;;;;1.40;0.70;;;16.70;84.90;;;;;;5009000;28;20023;-79
2022/10/15 07:20:30;;;;;;;0.80;0.50;;;16.70;84.90;;;;;;4981735;28;20117;-80
2022/10/15 07:22:58;;;;;;;2.05;0.60;;;16.70;84.90;;;;;;5005838;28;20034;-80
2022/10/15 07:25:24;;;;;;;0.73;0.50;;;16.70;84.50;;;;;;4997122;28;20029;-80
2022/10/15 07:27:50;;;;;;;0.70;0.50;;;16.60;84.70;;;;;;4992749;28;20034;-80
2022/10/15 07:30:16;;;;;;;1.02;0.55;;;16.70;84.80;;;;;;4998990;28;20065;-82
2022/10/15 07:32:42;;;;;;;1.17;0.40;;;16.70;84.20;;;;;;5004403;28;20093;-81
2022/10/15 07:35:08;;;;;;;1.92;0.50;;;16.60;84.40;;;;;;4991603;28;20026;-80
2022/10/15 07:37:34;;;;;;;0.65;0.40;;;16.50;84.30;;;;;;4997761;28;20109;-80
2022/10/15 07:40:00;;;;;;;1.65;0.52;;;16.50;84.40;;;;;;4990939;28;20042;-80
2022/10/15 07:42:26;;;;;;;0.70;0.50;;;16.40;84.20;;;;;;4991970;28;20201;-80
2022/10/15 07:44:52;;;;;;;0.57;0.40;;;16.40;84.20;;;;;;4995346;28;20022;-80
2022/10/15 07:47:17;;;;;;;0.88;0.50;;;16.30;83.90;;;;;;4995321;28;20729;-80
2022/10/15 07:49:43;;;;;;;3.50;0.60;;;16.30;84.40;;;;;;4995207;28;20109;-79
2022/10/15 07:52:09;;;;;;;1.17;0.68;;;16.30;84.50;;;;;;4995170;28;20034;-81
2022/10/15 07:54:34;;;;;;;1.17;0.73;;;16.30;84.60;;;;;;4997664;28;20413;-81
2022/10/15 07:57:00;;;;;;;0.77;0.50;;;16.30;84.40;;;;;;4997314;28;20041;-82
2022/10/15 07:59:26;;;;;;;1.67;0.80;;;16.30;84.30;;;;;;4997099;28;20022;-81
2022/10/15 08:01:51;;;;;;;1.10;0.60;;;16.30;83.80;;;;;;4997572;28;20551;-77
2022/10/15 08:04:19;;;;;;;1.00;0.57;;;16.30;84.30;;;;;;5004060;28;20022;-80
2022/10/15 08:06:45;;;;;;;1.70;0.60;;;16.30;84.50;;;;;;5013785;28;20435;-82
2022/10/15 08:09:11;;;;;;;1.98;0.68;;;16.20;84.50;;;;;;4996124;28;20085;-81
2022/10/15 08:11:37;;;;;;;1.45;0.95;;;16.30;83.90;;;;;;4997550;28;20030;-81
2022/10/15 08:14:03;;;;;;;2.83;1.02;;;16.30;84.50;;;;;;4993375;28;20054;-82
2022/10/15 08:16:29;;;;;;;1.00;0.68;;;16.30;84.10;;;;;;4997187;28;20022;-82
2022/10/15 08:18:56;;;;;;;1.10;0.65;;;16.40;84.00;;;;;;4995936;28;20027;-82
2022/10/15 08:21:21;;;;;;;0.60;0.50;;;16.30;84.00;;;;;;4993078;28;20037;-81
2022/10/15 08:23:47;;;;;;;0.88;0.50;;;16.40;83.90;;;;;;4995618;28;20041;-81
2022/10/15 08:26:13;;;;;;;5.18;0.98;;;16.50;83.80;;;;;;4992819;28;20034;-82
2022/10/15 08:28:38;;;;;;;0.93;0.60;;;16.60;83.60;;;;;;4995831;28;20547;-81
2022/10/15 08:31:05;;;;;;;2.60;0.68;;;16.60;83.10;;;;;;4996663;28;20548;-83
2022/10/15 08:33:31;;;;;;;0.93;0.70;;;16.60;83.50;;;;;;4997902;28;20030;-81
2022/10/15 08:35:57;;;;;;;2.25;0.80;;;16.60;83.30;;;;;;4997231;28;20085;-82
2022/10/15 08:38:23;;;;;;;1.48;0.70;;;16.60;83.50;;;;;;4996134;28;20030;-82
2022/10/15 08:40:52;;;;;;;5.30;0.90;;;16.70;83.60;;;;;;4994972;28;20038;-81
2022/10/15 08:43:36;;;;;;;1.48;0.60;;;16.70;83.60;;;;;;4996501;28;20497;-83
2022/10/15 08:46:08;;;;;;;0.90;0.50;;;16.80;83.00;;;;;;4996238;28;20073;-83
2022/10/15 08:48:43;;;;;;;4.55;1.02;;;16.90;82.70;;;;;;4994247;28;20061;-83
2022/10/15 08:51:10;;;;;;;1.85;0.93;;;17.10;83.20;;;;;;4992584;28;20030;-84
2022/10/15 08:53:48;;;;;;;2.20;0.90;;;17.10;83.00;;;;;;4998230;28;20559;-83
2022/10/15 08:56:39;;;;;;;2.58;1.25;;;17.30;83.10;;;;;;4994689;28;20713;-83
2022/10/15 08:59:26;;;;;;;1.73;0.80;;;17.40;83.20;;;;;;4986641;28;20026;-81
2022/10/15 09:01:57;;;;;;;1.52;0.60;;;17.50;82.50;;;;;;4995914;28;20027;-80
2022/10/15 09:04:54;;;;;;;2.05;0.50;;;17.50;81.90;;;;;;5008445;28;20050;-81
2022/10/15 09:07:45;;;;;;;1.15;0.55;;;17.50;81.90;;;;;;5006717;28;20030;-84
2022/10/15 09:10:23;;;;;;;2.20;0.80;;;17.50;81.20;;;;;;4995824;28;20564;-83
2022/10/15 09:13:00;;;;;;;1.98;0.65;;;17.50;80.90;;;;;;4990446;28;20102;-81
2022/10/15 09:15:30;;;;;;;1.27;0.77;;;17.50;81.20;;;;;;4978137;28;20122;-80
2022/10/15 09:17:56;;;;;;;1.23;0.68;;;17.50;81.00;;;;;;4998367;28;20026;-82
2022/10/15 09:20:33;;;;;;;1.20;0.60;;;17.40;80.80;;;;;;5013107;28;20060;-82
2022/10/15 09:22:59;;;;;;;2.10;0.77;;;17.50;80.50;;;;;;4990091;28;20058;-83
2022/10/15 09:25:33;;;;;;;1.50;0.90;;;17.50;80.20;;;;;;4993261;28;20031;-79
2022/10/15 09:28:05;;;;;;;4.10;0.90;;;17.50;80.80;;;;;;5000314;28;20037;-80
2022/10/15 09:30:49;;;;;;;5.93;0.90;;;17.60;80.40;;;;;;4990088;28;20030;-79
2022/10/15 09:33:34;;;;;;;2.83;0.75;;;17.60;80.50;;;;;;5010348;28;20033;-80
2022/10/15 09:36:03;;;;;;;1.63;0.90;;;17.70;80.90;;;;;;4994096;28;20572;-81
2022/10/15 09:39:00;;;;;;;2.05;1.05;;;17.70;79.90;;;;;;4994791;28;20080;-80
2022/10/15 09:41:52;;;;;;;4.00;0.95;;;17.70;80.00;;;;;;4991035;28;20031;-81
2022/10/15 09:44:22;;;;;;;2.88;1.23;;;17.80;80.30;;;;;;5007442;28;20041;-80
2022/10/15 09:47:20;;;;;;;1.15;0.68;;;17.80;80.30;;;;;;4990132;28;20061;-80
2022/10/15 09:49:45;;;;;;;1.35;0.77;;;17.70;80.00;;;;;;4992835;28;20085;-79
2022/10/15 09:52:28;;;;;;;1.95;0.70;;;17.70;79.90;;;;;;4994447;28;20026;-80
2022/10/15 09:55:31;;;;;;;1.35;0.80;;;17.70;79.50;;;;;;4988622;28;20088;-79
2022/10/15 09:58:02;;;;;;;1.33;0.77;;;17.80;79.50;;;;;;4993481;28;20022;-80
2022/10/15 10:00:50;;;;;;;1.02;0.52;;;17.90;79.50;;;;;;4993555;28;20026;-80
2022/10/15 10:03:16;;;;;;;1.00;0.50;;;17.90;79.80;;;;;;4994539;28;20070;-80
2022/10/15 10:05:42;;;;;;;5.15;0.63;;;17.90;79.30;;;;;;4994886;28;20054;-80
2022/10/15 10:08:21;;;;;;;1.65;0.68;;;17.90;79.70;;;;;;4992890;28;20030;-80
2022/10/15 10:11:01;;;;;;;2.63;0.67;;;17.90;79.90;;;;;;4993061;28;20466;-79
2022/10/15 10:13:29;;;;;;;2.60;0.60;;;17.80;79.90;;;;;;4992669;28;20121;-80
2022/10/15 10:16:00;;;;;;;0.93;0.52;;;17.90;79.70;;;;;;4993164;28;20041;-80
2022/10/15 10:18:26;;;;;;;1.10;0.60;;;18.00;79.70;;;;;;4994633;28;20042;-80
2022/10/15 10:20:58;;;;;;;1.35;0.80;;;18.00;78.90;;;;;;4994854;28;20030;-80
2022/10/15 10:23:38;;;;;;;0.80;0.50;;;18.10;79.60;;;;;;4996510;28;20022;-81
2022/10/15 10:26:05;;;;;;;;;;;18.20;79.60;;;;;;4995107;28;20026;-81
2022/10/15 10:28:35;;;;;;;2.97;0.80;;;18.10;79.00;;;;;;4992731;28;19948;-80
2022/10/15 10:31:03;;;;;;;;;;;18.20;78.60;;;;;;4987192;28;20030;-81
2022/10/15 10:33:42;;;;;;;1.95;0.68;;;18.20;78.90;;;;;;4984573;28;19949;-81
2022/10/15 10:36:20;;;;;;;0.75;0.40;;;18.20;78.80;;;;;;4974192;28;20034;-81
2022/10/15 10:39:14;;;;;;;0.80;0.40;;;18.20;78.60;;;;;;4975570;28;20029;-80
2022/10/15 10:42:03;;;;;;;1.02;0.50;;;18.20;79.20;;;;;;4988653;28;20041;-82
2022/10/15 10:44:34;;;;;;;2.95;1.40;;;18.20;78.90;;;;;;5000722;28;20053;-80
2022/10/15 10:47:14;;;;;;;3.10;0.63;;;18.20;78.20;;;;;;4995385;28;20066;-80
2022/10/15 10:49:45;;;;;;;0.85;0.43;;;18.30;79.10;;;;;;4995439;28;20053;-81
2022/10/15 10:52:40;;;;;;;0.70;0.32;;;18.40;78.80;;;;;;4995286;28;20038;-81
2022/10/15 10:55:17;;;;;;;2.30;0.60;;;18.40;78.70;;;;;;4991341;28;20046;-80
2022/10/15 10:57:54;;;;;;;0.93;0.55;;;18.40;78.80;;;;;;5007950;28;20039;-80
2022/10/15 11:00:31;;;;;;;0.98;0.65;;;18.30;78.70;;;;;;4992340;28;20030;-80
2022/10/15 11:02:57;;;;;;;0.80;0.40;;;18.40;79.00;;;;;;4990197;28;20019;-80
2022/10/15 11:05:32;;;;;;;1.48;0.70;;;18.50;78.70;;;;;;4994348;28;20027;-80
2022/10/15 11:08:12;;;;;;;1.98;0.47;;;18.70;78.70;;;;;;4989724;28;20030;-80
2022/10/15 11:10:49;;;;;;;1.02;0.50;;;18.80;78.70;;;;;;4992831;28;20022;-80
2022/10/15 11:13:41;;;;;;;0.90;0.47;;;18.80;76.90;;;;;;4994312;28;20643;-80
2022/10/15 11:16:32;;;;;;;1.00;0.50;;;18.80;77.00;;;;;;4994488;28;20041;-80
2022/10/15 11:19:19;;;;;;;0.95;0.43;;;19.00;76.80;;;;;;4975762;28;20409;-80
2022/10/15 11:22:09;;;;;;;0.70;0.35;;;19.10;76.50;;;;;;4991159;28;20054;-81
2022/10/15 11:24:43;;;;;;;1.48;0.40;;;19.10;76.50;;;;;;5002998;28;20049;-82
2022/10/15 11:27:41;;;;;;;0.98;0.45;;;19.10;76.30;;;;;;4979247;28;20211;-83
2022/10/15 11:30:56;;;;;;;3.33;0.70;;;19.10;76.30;;;;;;4995942;28;20061;-79
2022/10/15 11:33:55;;;;;;;1.83;0.60;;;19.20;76.20;;;;;;4989077;28;20114;-78
2022/10/15 11:36:48;;;;;;;1.00;0.43;;;19.20;76.30;;;;;;4994767;28;20029;-80
2022/10/15 11:39:47;;;;;;;0.80;0.30;;;19.10;76.20;;;;;;4979112;28;20086;-84
2022/10/15 11:42:38;;;;;;;0.70;0.47;;;19.00;76.10;;;;;;4977983;28;20034;-81
2022/10/15 11:45:24;;;;;;;0.77;0.40;;;19.00;76.00;;;;;;4989824;28;20027;-81
2022/10/15 11:47:58;;;;;;;3.08;0.75;;;19.00;76.00;;;;;;4983945;28;20030;-80
2022/10/15 11:50:45;;;;;;;9.20;1.55;;;18.90;75.90;;;;;;5016913;28;20445;-81
2022/10/15 11:53:35;;;;;;;1.00;0.60;;;18.80;76.40;;;;;;4978978;28;20091;-77
2022/10/15 11:56:11;;;;;;;1.85;0.50;;;18.80;76.80;;;;;;4992060;28;20029;-80
2022/10/15 11:58:40;;;;;;;0.65;0.43;;;18.80;76.90;;;;;;4997158;28;20039;-80
2022/10/15 12:01:22;;;;;;;0.90;0.40;;;18.80;76.20;;;;;;4997855;28;20030;-79
2022/10/15 12:04:12;;;;;;;3.63;0.80;;;18.70;76.40;;;;;;4998268;28;20044;-81
2022/10/15 12:06:50;;;;;;;2.45;0.60;;;18.80;76.30;;;;;;4998151;28;20093;-81
2022/10/15 12:09:27;;;;;;;2.15;0.60;;;18.70;76.70;;;;;;4998203;28;20046;-80
2022/10/15 12:12:11;;;;;;;0.40;0.30;;;18.70;77.10;;;;;;4994526;28;20026;-78
2022/10/15 12:14:48;;;;;;;0.85;0.52;;;18.80;76.60;;;;;;4992985;28;20055;-79
2022/10/15 12:17:39;;;;;;;1.08;0.47;;;18.80;76.80;;;;;;4992663;28;20061;-80
2022/10/15 12:20:16;;;;;;;0.88;0.43;;;18.80;77.00;;;;;;4996468;28;20021;-80
2022/10/15 12:22:51;;;;;;;0.65;0.50;;;18.90;77.00;;;;;;4996926;28;20029;-85
2022/10/15 12:25:34;;;;;;;1.23;0.70;;;19.00;76.80;;;;;;5008281;28;20528;-90
2022/10/15 12:28:04;;;;;;;1.20;0.65;;;19.10;76.20;;;;;;4996824;28;20054;-84
2022/10/15 12:30:36;;;;;;;2.97;0.80;;;19.00;75.80;;;;;;4995442;28;20377;-90
2022/10/15 12:33:19;;;;;;;2.28;0.50;;;18.90;75.80;;;;;;4996224;28;20058;-91
2022/10/15 12:35:53;;;;;;;2.25;0.50;;;18.90;75.70;;;;;;4999935;28;20141;-87
2022/10/15 12:38:19;;;;;;;2.50;0.82;;;19.00;75.80;;;;;;4985174;28;20533;-90
2022/10/15 12:40:53;;;;;;;0.65;0.28;;;19.10;74.60;;;;;;4986404;28;20023;-89
2022/10/15 12:43:20;;;;;;;2.42;0.77;;;19.20;74.40;;;;;;4988308;28;20511;-90
2022/10/15 12:45:55;;;;;;;2.15;0.50;;;19.20;74.20;;;;;;4996567;28;20508;-91
2022/10/15 12:48:29;;;;;;;1.25;0.70;;;19.30;73.10;;;;;;4988658;28;20018;-90
2022/10/15 12:51:20;;;;;;;1.00;0.60;;;19.40;71.80;;;;;;4992328;28;20115;-89
2022/10/15 12:53:47;;;;;;;0.70;0.40;;;19.50;71.90;;;;;;4995506;28;20030;-89
2022/10/15 12:56:16;;;;;;;0.70;0.38;;;19.50;71.10;;;;;;4990802;28;20018;-88
2022/10/15 12:58:43;;;;;;;1.20;0.43;;;19.50;70.60;;;;;;4987870;28;20551;-88
2022/10/15 13:01:18;;;;;;;1.40;0.55;;;19.40;71.60;;;;;;4988916;28;20046;-88
2022/10/15 13:03:49;;;;;;;1.23;0.55;;;19.40;71.50;;;;;;5007875;28;20509;-88
2022/10/15 13:06:23;;;;;;;1.65;0.40;;;19.40;71.30;;;;;;5002893;28;20031;-89
2022/10/15 13:09:03;;;;;;;1.02;0.43;;;19.40;71.00;;;;;;4985440;28;20053;-82
2022/10/15 13:11:31;;;;;;;;;;;19.40;70.20;;;;;;5008944;28;20042;-87
2022/10/15 13:14:26;;;;;;;0.55;0.40;;;19.30;70.10;;;;;;4979592;28;20414;-91